This is the latest recevied weather packets stored in our database for station/object ZS1DFR-1. If no packets are shown the sender has not sent any weather packets the latest 10 day(s).
| Time | Temp. | Humidity | Pressure | Rain* | Wind** | Luminosity | Snow |
|---|---|---|---|---|---|---|---|
| 1777468103 | 20.56° C | 53% | 1018 hPa | 0 mm | - | - | - |
| 1777467203 | 20.56° C | 51% | 1018.3 hPa | 0 mm | - | - | - |
| 1777466303 | 20.56° C | 51% | 1018.3 hPa | 0 mm | - | - | - |
| 1777465403 | 20.56° C | 50% | 1018.8 hPa | 0 mm | - | - | - |
| 1777464503 | 20.56° C | 50% | 1018.8 hPa | 0 mm | - | - | - |
| 1777463603 | 21.11° C | 50% | 1019.2 hPa | 0 mm | - | - | - |
| 1777462703 | 21.11° C | 50% | 1019.2 hPa | 0 mm | - | - | - |
| 1777461803 | 20.56° C | 46% | 1019.7 hPa | 0 mm | - | - | - |
| 1777460903 | 20.56° C | 46% | 1019.7 hPa | 0 mm | - | - | - |
| 1777460003 | 20.56° C | 45% | 1020.3 hPa | 0 mm | - | - | - |
| 1777459103 | 20.56° C | 45% | 1020.3 hPa | 0 mm | - | - | - |
| 1777458203 | 20° C | 49% | 1020.8 hPa | 0 mm | - | - | - |
| 1777457303 | 20° C | 49% | 1020.8 hPa | 0 mm | - | - | - |
| 1777456403 | 18.89° C | 53% | 1021.1 hPa | 0 mm | - | - | - |
| 1777455503 | 18.89° C | 53% | 1021.1 hPa | 0 mm | - | - | - |
| 1777454603 | 18.33° C | 57% | 1021.4 hPa | 0 mm | - | - | - |
| 1777453703 | 18.33° C | 57% | 1021.4 hPa | 0 mm | - | - | - |
| 1777452803 | 17.78° C | 60% | 1021.7 hPa | 0 mm | - | - | - |
| 1777451903 | 17.78° C | 60% | 1021.7 hPa | 0 mm | - | - | - |
| 1777451003 | 17.22° C | 67% | 1022.1 hPa | 0 mm | - | - | - |
| 1777450103 | 17.22° C | 67% | 1022.1 hPa | 0 mm | - | - | - |
| 1777449203 | 15.56° C | 73% | 1022.1 hPa | 0 mm | - | - | - |
| 1777448303 | 15.56° C | 73% | 1022.1 hPa | 0 mm | - | - | - |
| 1777447403 | 15° C | 74% | 1022 hPa | 0 mm | - | - | - |
| 1777446503 | 15° C | 74% | 1022 hPa | 0 mm | - | - | - |
* Rain latest hour (hover to see other rain measurements)
** Current wind speed in m/s (hover to see current wind gust speed)